createdAt,value
2023-03-21T00:01:52.721Z,11.90
2023-03-21T00:04:20.310Z,11.90
2023-03-21T00:06:46.889Z,12.00
2023-03-21T00:09:13.422Z,11.70
2023-03-21T00:11:40.366Z,11.60
2023-03-21T00:14:08.733Z,11.60
2023-03-21T00:16:36.732Z,12.10
2023-03-21T00:19:07.467Z,12.20
2023-03-21T00:21:55.670Z,12.20
2023-03-21T00:24:25.355Z,12.10
2023-03-21T00:26:52.004Z,12.00
2023-03-21T00:29:18.992Z,11.80
2023-03-21T00:31:46.580Z,12.00
2023-03-21T00:36:44.666Z,11.90
2023-03-21T00:39:11.791Z,12.00
2023-03-21T00:41:42.844Z,12.10
2023-03-21T00:44:13.747Z,12.00
2023-03-21T00:46:47.349Z,12.10
2023-03-21T00:49:20.995Z,12.20
2023-03-21T00:51:51.577Z,12.40
2023-03-21T00:54:18.495Z,12.20
2023-03-21T00:56:45.020Z,12.20
2023-03-21T00:59:11.637Z,12.10
2023-03-21T01:01:38.277Z,12.20
2023-03-21T01:04:10.820Z,12.30
2023-03-21T01:06:41.576Z,12.50
2023-03-21T01:09:19.594Z,12.40
2023-03-21T01:11:46.400Z,12.40
2023-03-21T01:14:23.553Z,11.90
2023-03-21T01:16:53.893Z,11.70
2023-03-21T01:19:35.184Z,11.60
2023-03-21T01:22:08.677Z,11.60
2023-03-21T01:24:40.618Z,11.70
2023-03-21T01:27:13.496Z,11.50
2023-03-21T01:29:40.095Z,11.60
2023-03-21T01:32:07.022Z,11.50
2023-03-21T01:34:33.572Z,11.30
2023-03-21T01:37:00.602Z,11.00
2023-03-21T01:39:27.244Z,10.90
2023-03-21T01:41:54.065Z,10.70
2023-03-21T01:44:23.348Z,10.60
2023-03-21T01:47:11.547Z,11.00
2023-03-21T01:50:06.192Z,11.40
2023-03-21T01:52:39.468Z,11.60
2023-03-21T01:55:12.625Z,11.30
2023-03-21T01:58:05.835Z,10.90
2023-03-21T02:00:52.369Z,11.20
2023-03-21T02:03:36.135Z,11.10
2023-03-21T02:06:50.620Z,11.10
2023-03-21T02:09:33.741Z,11.30
2023-03-21T02:12:01.888Z,11.60
2023-03-21T02:14:30.865Z,11.90
2023-03-21T02:17:03.844Z,11.70
2023-03-21T02:19:59.218Z,11.80
2023-03-21T02:22:48.062Z,11.80
2023-03-21T02:25:23.751Z,11.60
2023-03-21T02:28:10.644Z,11.10
2023-03-21T02:30:52.379Z,11.00
2023-03-21T02:33:44.751Z,11.10
2023-03-21T02:36:30.020Z,10.70
2023-03-21T02:39:11.546Z,10.70
2023-03-21T02:41:52.418Z,10.90
2023-03-21T02:44:34.041Z,10.70
2023-03-21T02:47:08.819Z,11.00
2023-03-21T02:49:43.347Z,11.50
2023-03-21T02:52:28.243Z,11.40
2023-03-21T02:54:59.659Z,11.40
2023-03-21T02:57:42.246Z,11.00
2023-03-21T03:00:17.196Z,10.40
2023-03-21T03:02:47.568Z,10.90
2023-03-21T03:05:21.323Z,11.10
2023-03-21T03:08:17.168Z,10.80
2023-03-21T03:10:56.259Z,10.60
2023-03-21T03:13:42.172Z,10.30
2023-03-21T03:16:25.740Z,10.00
2023-03-21T03:18:56.954Z,10.10
2023-03-21T03:21:31.670Z,10.20
2023-03-21T03:24:09.306Z,10.20
2023-03-21T03:26:57.553Z,9.90
2023-03-21T03:29:28.954Z,10.10
2023-03-21T03:32:06.338Z,10.10
2023-03-21T03:34:39.559Z,10.00
2023-03-21T03:37:10.330Z,10.00
2023-03-21T03:39:41.414Z,10.10
2023-03-21T03:42:28.009Z,10.00
2023-03-21T03:45:06.542Z,9.70
2023-03-21T03:47:57.295Z,9.30
2023-03-21T03:50:34.624Z,9.40
2023-03-21T03:53:16.259Z,9.40
2023-03-21T03:55:45.704Z,9.80
2023-03-21T03:58:23.210Z,9.90
2023-03-21T04:00:55.381Z,9.50
2023-03-21T04:03:22.391Z,9.50
2023-03-21T04:05:50.321Z,9.40
2023-03-21T04:08:17.200Z,9.60
2023-03-21T04:10:49.121Z,9.80
2023-03-21T04:13:15.768Z,9.60
2023-03-21T04:16:03.022Z,10.00
2023-03-21T04:18:30.506Z,10.10
2023-03-21T04:20:58.061Z,10.20
2023-03-21T04:23:29.175Z,10.20
2023-03-21T04:25:57.231Z,9.90
2023-03-21T04:28:37.031Z,10.10
2023-03-21T04:31:25.543Z,10.40
2023-03-21T04:34:02.223Z,10.40
2023-03-21T04:36:38.609Z,10.40
2023-03-21T04:39:12.257Z,10.60
2023-03-21T04:41:40.944Z,10.80
2023-03-21T04:44:08.085Z,11.00
2023-03-21T04:46:35.634Z,11.10
2023-03-21T04:49:02.686Z,11.10
2023-03-21T04:51:29.364Z,10.80
2023-03-21T04:53:59.980Z,10.40
2023-03-21T04:56:33.868Z,10.40
2023-03-21T04:59:03.848Z,10.30
2023-03-21T05:01:30.778Z,10.10
2023-03-21T05:04:01.449Z,9.90
2023-03-21T05:06:28.404Z,9.90
2023-03-21T05:08:59.855Z,9.70
2023-03-21T05:11:27.963Z,9.50
2023-03-21T05:13:54.593Z,9.70
2023-03-21T05:16:25.411Z,9.70
2023-03-21T05:18:54.750Z,10.10
2023-03-21T05:21:23.044Z,10.00
2023-03-21T05:23:58.196Z,9.80
2023-03-21T05:26:25.138Z,9.80
2023-03-21T05:29:04.842Z,9.80
2023-03-21T05:31:31.863Z,9.80
2023-03-21T05:34:06.135Z,10.30
2023-03-21T05:36:35.637Z,10.20
2023-03-21T05:39:05.294Z,9.60
2023-03-21T05:41:35.764Z,9.20
2023-03-21T05:44:04.403Z,9.00
2023-03-21T05:46:31.085Z,9.10
2023-03-21T05:48:57.849Z,9.10
2023-03-21T05:51:25.260Z,9.10
2023-03-21T05:53:51.896Z,9.20
2023-03-21T05:56:18.748Z,9.60
2023-03-21T05:58:59.966Z,9.80
2023-03-21T06:01:27.628Z,9.50
2023-03-21T06:04:05.405Z,9.30
2023-03-21T06:06:33.040Z,9.30
2023-03-21T06:09:00.808Z,9.10
2023-03-21T06:11:30.067Z,9.20
2023-03-21T06:14:21.418Z,8.80
2023-03-21T06:17:08.865Z,8.80
2023-03-21T06:19:41.802Z,8.60
2023-03-21T06:22:15.763Z,8.60
2023-03-21T06:24:42.518Z,8.60
2023-03-21T06:27:09.293Z,8.50
2023-03-21T06:29:51.270Z,8.50
2023-03-21T06:32:18.645Z,8.40
2023-03-21T06:34:47.126Z,8.30
2023-03-21T06:37:15.405Z,8.20
2023-03-21T06:39:42.441Z,8.30
2023-03-21T06:42:09.602Z,8.10
2023-03-21T06:44:36.430Z,8.10
2023-03-21T06:47:07.073Z,8.30
2023-03-21T06:49:33.919Z,8.40
2023-03-21T06:52:06.958Z,8.70
2023-03-21T06:54:33.951Z,8.80
2023-03-21T06:57:07.057Z,8.80
2023-03-21T06:59:36.084Z,8.60
2023-03-21T07:02:11.232Z,8.70
2023-03-21T07:04:46.731Z,8.70
2023-03-21T07:07:18.652Z,9.00
2023-03-21T07:09:45.340Z,9.00
2023-03-21T07:12:11.904Z,8.90
2023-03-21T07:14:57.308Z,8.90
2023-03-21T07:17:23.970Z,8.80
2023-03-21T07:19:50.573Z,8.60
2023-03-21T07:22:18.791Z,8.70
2023-03-21T07:24:55.901Z,8.70
2023-03-21T07:27:29.342Z,8.60
2023-03-21T07:29:56.307Z,8.80
2023-03-21T07:32:23.208Z,8.90
2023-03-21T07:34:50.097Z,8.90
2023-03-21T07:37:16.793Z,8.80
2023-03-21T07:39:43.336Z,8.90
2023-03-21T07:42:11.880Z,8.80
2023-03-21T07:44:39.428Z,8.70
2023-03-21T07:47:06.338Z,8.60
2023-03-21T07:49:33.408Z,8.70
2023-03-21T07:52:04.556Z,8.80
2023-03-21T07:54:31.609Z,8.70
2023-03-21T07:56:58.397Z,8.70
2023-03-21T07:59:24.941Z,8.80
2023-03-21T08:01:51.764Z,8.90
2023-03-21T08:04:18.382Z,8.90
2023-03-21T08:06:44.917Z,8.90
2023-03-21T08:09:11.444Z,8.90
2023-03-21T08:11:38.056Z,9.10
2023-03-21T08:14:04.581Z,9.30
2023-03-21T08:16:31.594Z,9.30
2023-03-21T08:18:58.183Z,8.90
2023-03-21T08:21:25.438Z,9.00
2023-03-21T08:23:53.149Z,8.90
2023-03-21T08:26:19.829Z,9.00
2023-03-21T08:28:46.650Z,8.90
2023-03-21T08:31:13.970Z,8.80
2023-03-21T08:33:40.697Z,9.10
2023-03-21T08:36:07.972Z,9.20
2023-03-21T08:38:34.600Z,9.00
2023-03-21T08:41:01.277Z,9.10
2023-03-21T08:43:28.632Z,9.10
2023-03-21T08:45:56.025Z,9.00
2023-03-21T08:48:22.994Z,8.90
2023-03-21T08:50:49.641Z,8.90
2023-03-21T08:53:16.174Z,8.80
2023-03-21T08:55:44.534Z,9.00
2023-03-21T08:58:11.280Z,9.20
2023-03-21T09:00:37.951Z,9.30
2023-03-21T09:03:05.156Z,9.30
2023-03-21T09:05:31.787Z,9.40
2023-03-21T09:07:58.343Z,9.80
2023-03-21T09:10:24.938Z,9.40
2023-03-21T09:12:53.545Z,9.40
2023-03-21T09:15:21.920Z,9.60
2023-03-21T09:17:52.422Z,9.50
2023-03-21T09:20:21.188Z,9.50
2023-03-21T09:22:49.022Z,9.50
2023-03-21T09:25:16.700Z,9.40
2023-03-21T09:27:45.766Z,9.20
2023-03-21T09:30:19.999Z,9.20
2023-03-21T09:32:48.602Z,9.20
2023-03-21T09:35:19.522Z,9.20
2023-03-21T09:37:48.198Z,9.30
2023-03-21T09:40:40.065Z,9.40
2023-03-21T09:43:25.466Z,9.40
2023-03-21T09:46:01.453Z,9.50
2023-03-21T09:48:57.834Z,9.70
2023-03-21T09:51:28.319Z,9.80
2023-03-21T09:53:57.205Z,9.70
2023-03-21T09:56:26.008Z,9.70
2023-03-21T09:58:54.934Z,9.80
2023-03-21T10:01:34.409Z,10.00
2023-03-21T10:04:05.386Z,9.90
2023-03-21T10:06:34.559Z,9.70
2023-03-21T10:09:07.434Z,9.60
2023-03-21T10:11:50.161Z,9.60
2023-03-21T10:14:21.724Z,9.70
2023-03-21T10:16:51.932Z,9.80
2023-03-21T10:19:19.853Z,9.80
2023-03-21T10:22:00.651Z,9.90
2023-03-21T10:24:29.970Z,9.80
2023-03-21T10:26:56.968Z,10.00
2023-03-21T10:29:27.749Z,10.20
2023-03-21T10:31:55.382Z,10.30
2023-03-21T10:34:31.958Z,10.30
2023-03-21T10:37:00.152Z,10.30
2023-03-21T10:39:38.664Z,10.40
2023-03-21T10:42:05.512Z,10.50
2023-03-21T10:44:33.935Z,10.60
2023-03-21T10:47:06.621Z,10.80
2023-03-21T10:49:40.555Z,10.80
2023-03-21T10:52:20.430Z,10.80
2023-03-21T10:54:48.351Z,10.40
2023-03-21T10:57:22.710Z,10.50
2023-03-21T10:59:53.668Z,10.60
2023-03-21T11:02:25.153Z,10.50
2023-03-21T11:04:53.988Z,10.40
2023-03-21T11:07:20.593Z,10.50
2023-03-21T11:09:48.060Z,10.50
2023-03-21T11:12:19.119Z,10.40
2023-03-21T11:14:50.949Z,10.60
2023-03-21T11:17:17.504Z,10.50
2023-03-21T11:19:49.830Z,10.50
2023-03-21T11:22:17.303Z,10.50
2023-03-21T11:24:50.666Z,10.70
2023-03-21T11:27:17.463Z,10.90
2023-03-21T11:29:51.348Z,10.70
2023-03-21T11:32:34.116Z,10.50
2023-03-21T11:35:19.747Z,10.60
2023-03-21T11:37:51.117Z,10.60
2023-03-21T11:40:33.565Z,10.60
2023-03-21T11:43:23.085Z,10.70
2023-03-21T11:46:05.323Z,10.80
2023-03-21T11:48:46.925Z,10.50
2023-03-21T11:51:47.285Z,10.70
2023-03-21T11:54:22.349Z,10.50
2023-03-21T11:56:54.084Z,10.80
2023-03-21T11:59:35.715Z,10.70
2023-03-21T12:02:22.108Z,10.70
2023-03-21T12:04:53.077Z,10.70
2023-03-21T12:07:22.682Z,10.60
2023-03-21T12:10:01.625Z,10.80
2023-03-21T12:13:11.682Z,10.90
2023-03-21T12:16:00.012Z,10.90
2023-03-21T12:18:49.395Z,11.40
2023-03-21T12:21:33.827Z,11.50
2023-03-21T12:24:09.142Z,11.30
2023-03-21T12:26:43.283Z,11.50
2023-03-21T12:29:09.890Z,11.50
2023-03-21T12:32:11.714Z,11.50
2023-03-21T12:34:38.170Z,11.60
2023-03-21T12:37:16.435Z,11.50
2023-03-21T12:39:46.790Z,11.50
2023-03-21T12:42:13.309Z,11.70
2023-03-21T12:44:41.926Z,12.10
2023-03-21T12:47:17.906Z,11.70
2023-03-21T12:49:54.033Z,11.50
2023-03-21T12:52:26.124Z,11.70
2023-03-21T12:55:16.930Z,11.60
2023-03-21T12:57:57.650Z,11.90
2023-03-21T13:00:39.923Z,11.90
2023-03-21T13:03:30.264Z,11.80
2023-03-21T13:06:05.575Z,11.60
2023-03-21T13:08:37.436Z,11.70
2023-03-21T13:11:05.768Z,11.90
2023-03-21T13:13:56.574Z,11.90
2023-03-21T13:16:27.309Z,11.90
2023-03-21T13:19:28.940Z,12.00
2023-03-21T13:21:58.276Z,12.00
2023-03-21T13:24:26.105Z,12.10
2023-03-21T13:27:00.640Z,12.10
2023-03-21T13:29:32.115Z,11.90
2023-03-21T13:32:14.763Z,11.80
2023-03-21T13:34:41.627Z,11.90
2023-03-21T13:37:15.356Z,11.80
2023-03-21T13:39:49.742Z,11.80
2023-03-21T13:42:22.955Z,11.90
2023-03-21T13:44:53.950Z,12.00
2023-03-21T13:47:31.585Z,11.70
2023-03-21T13:50:23.848Z,11.90
2023-03-21T13:53:20.430Z,11.80
2023-03-21T13:55:58.746Z,11.70
2023-03-21T13:58:43.511Z,11.70
2023-03-21T14:01:36.204Z,11.90
2023-03-21T14:04:11.761Z,11.70
2023-03-21T14:06:49.249Z,11.90
2023-03-21T14:09:25.042Z,11.80
2023-03-21T14:11:54.657Z,11.80
2023-03-21T14:14:25.282Z,12.00
2023-03-21T14:16:54.908Z,12.30
2023-03-21T14:19:29.199Z,12.20
2023-03-21T14:21:56.636Z,12.30
2023-03-21T14:24:23.197Z,12.10
2023-03-21T14:26:52.010Z,12.00
2023-03-21T14:29:31.727Z,12.10
2023-03-21T14:32:00.026Z,12.10
2023-03-21T14:34:27.769Z,12.30
2023-03-21T14:36:58.613Z,12.30
2023-03-21T14:39:31.089Z,12.10
2023-03-21T14:42:06.806Z,12.10
2023-03-21T14:44:52.835Z,12.10
2023-03-21T14:47:26.123Z,12.20
2023-03-21T14:49:52.982Z,12.30
2023-03-21T14:52:26.257Z,12.20
2023-03-21T14:54:54.100Z,12.20
2023-03-21T14:57:24.904Z,12.30
2023-03-21T14:59:54.912Z,12.40
2023-03-21T15:02:42.059Z,12.50
2023-03-21T15:05:20.695Z,12.60
2023-03-21T15:07:59.037Z,12.50
2023-03-21T15:10:27.729Z,12.70
2023-03-21T15:12:56.690Z,12.60
2023-03-21T15:15:27.417Z,12.70
2023-03-21T15:17:55.855Z,12.60
2023-03-21T15:20:25.188Z,12.60
2023-03-21T15:23:09.789Z,12.60
2023-03-21T15:25:37.527Z,12.70
2023-03-21T15:28:06.215Z,13.00
2023-03-21T15:30:34.221Z,13.20
2023-03-21T15:33:09.528Z,13.20
2023-03-21T15:35:40.346Z,12.90
2023-03-21T15:38:07.291Z,12.80
2023-03-21T15:40:35.244Z,12.80
2023-03-21T15:43:20.424Z,12.80
2023-03-21T15:45:54.796Z,12.70
2023-03-21T15:48:26.323Z,12.70
2023-03-21T15:50:55.682Z,12.50
2023-03-21T15:53:23.827Z,12.50
2023-03-21T15:55:52.561Z,12.50
2023-03-21T15:58:21.455Z,12.50
2023-03-21T16:00:55.427Z,12.50
2023-03-21T16:03:27.906Z,12.50
2023-03-21T16:06:14.348Z,12.50
2023-03-21T16:08:53.545Z,12.60
2023-03-21T16:11:24.791Z,12.60
2023-03-21T16:13:52.279Z,12.80
2023-03-21T16:16:27.168Z,12.80
2023-03-21T16:18:55.098Z,13.00
2023-03-21T16:21:24.010Z,13.10
2023-03-21T16:23:51.055Z,12.80
2023-03-21T16:26:26.119Z,12.80
2023-03-21T16:28:52.962Z,12.80
2023-03-21T16:31:22.138Z,12.70
2023-03-21T16:33:49.109Z,12.70
2023-03-21T16:36:23.930Z,12.90
2023-03-21T16:38:52.713Z,12.80
2023-03-21T16:41:19.847Z,12.90
2023-03-21T16:43:46.465Z,13.10
2023-03-21T16:46:17.832Z,13.10
2023-03-21T16:48:46.763Z,13.00
2023-03-21T16:51:27.018Z,13.20
2023-03-21T16:53:53.567Z,13.10
2023-03-21T16:56:26.708Z,13.30
2023-03-21T16:58:57.295Z,13.40
2023-03-21T17:01:26.019Z,13.60
2023-03-21T17:03:53.747Z,13.60
2023-03-21T17:06:22.795Z,13.60
2023-03-21T17:08:49.330Z,13.50
2023-03-21T17:11:19.906Z,13.60
2023-03-21T17:13:48.006Z,13.20
2023-03-21T17:16:17.647Z,13.20
2023-03-21T17:18:45.824Z,13.20
2023-03-21T17:21:15.287Z,13.30
2023-03-21T17:23:42.467Z,13.50
2023-03-21T17:26:10.650Z,13.80
2023-03-21T17:28:37.910Z,13.70
2023-03-21T17:31:10.677Z,13.90
2023-03-21T17:33:37.261Z,13.80
2023-03-21T17:36:05.542Z,13.50
2023-03-21T17:38:32.212Z,13.40
2023-03-21T17:40:59.633Z,13.40
2023-03-21T17:43:26.207Z,13.20
2023-03-21T17:45:52.777Z,13.40
2023-03-21T17:48:19.508Z,13.70
2023-03-21T17:50:46.039Z,13.70
2023-03-21T17:53:12.569Z,13.80
2023-03-21T17:55:39.974Z,13.70
2023-03-21T17:58:06.763Z,13.40
2023-03-21T18:00:33.343Z,13.50
2023-03-21T18:02:59.884Z,13.70
2023-03-21T18:05:27.290Z,13.60
2023-03-21T18:08:11.992Z,13.30
2023-03-21T18:10:40.653Z,13.20
2023-03-21T18:13:07.473Z,13.30
2023-03-21T18:15:35.977Z,13.30
2023-03-21T18:18:04.693Z,13.30
2023-03-21T18:23:19.093Z,12.80
2023-03-21T18:25:45.808Z,13.20
2023-03-21T18:28:13.090Z,13.40
2023-03-21T18:33:27.288Z,13.50
2023-03-21T18:35:59.047Z,13.60
2023-03-21T18:38:25.924Z,13.60
2023-03-21T18:40:52.572Z,13.70
2023-03-21T18:46:07.098Z,13.40
2023-03-21T18:48:34.334Z,13.40
2023-03-21T18:51:01.967Z,13.20
2023-03-21T18:53:29.678Z,13.40
2023-03-21T18:55:56.178Z,13.30
2023-03-21T18:58:22.930Z,13.20
2023-03-21T19:00:51.218Z,13.10
2023-03-21T19:03:29.888Z,12.90
2023-03-21T19:06:03.571Z,12.80
2023-03-21T19:08:30.779Z,12.60
2023-03-21T19:11:00.272Z,12.70
2023-03-21T19:13:30.019Z,12.50
2023-03-21T19:15:56.728Z,12.30
2023-03-21T19:18:41.468Z,12.40
2023-03-21T19:21:10.354Z,12.80
2023-03-21T19:24:07.904Z,12.50
2023-03-21T19:26:24.981Z,12.60
2023-03-21T19:28:51.764Z,12.50
2023-03-21T19:31:19.051Z,12.80
2023-03-21T19:33:46.190Z,12.50
2023-03-21T19:36:21.249Z,12.50
2023-03-21T19:38:48.507Z,12.30
2023-03-21T19:41:15.059Z,12.00
2023-03-21T19:43:52.826Z,12.10
2023-03-21T19:46:22.542Z,12.00
2023-03-21T19:48:50.017Z,12.00
2023-03-21T19:51:32.937Z,12.00
2023-03-21T19:54:01.219Z,12.10
2023-03-21T19:56:28.117Z,12.10
2023-03-21T19:58:58.110Z,12.00
2023-03-21T20:01:25.338Z,11.90
2023-03-21T20:03:52.649Z,11.80
2023-03-21T20:06:19.545Z,11.90
2023-03-21T20:11:33.928Z,12.00
2023-03-21T20:14:05.359Z,12.20
2023-03-21T20:16:35.001Z,12.10
2023-03-21T20:19:05.905Z,12.00
2023-03-21T20:21:44.352Z,12.00
2023-03-21T20:24:14.269Z,11.90
2023-03-21T20:26:40.838Z,11.90
2023-03-21T20:29:56.391Z,11.90
2023-03-21T20:31:54.148Z,11.80
2023-03-21T20:34:21.350Z,11.80
2023-03-21T20:36:48.505Z,11.80
2023-03-21T20:39:15.410Z,11.70
2023-03-21T20:41:42.125Z,11.70
2023-03-21T20:46:56.565Z,11.70
2023-03-21T20:49:24.211Z,11.70
2023-03-21T20:52:49.437Z,11.40
2023-03-21T20:54:37.887Z,11.50
2023-03-21T20:57:05.017Z,11.30
2023-03-21T20:59:31.754Z,11.20
2023-03-21T21:01:58.496Z,11.10
2023-03-21T21:04:46.727Z,11.10
2023-03-21T21:07:17.047Z,11.20
2023-03-21T21:09:44.065Z,11.10
2023-03-21T21:12:11.484Z,11.10
2023-03-21T21:14:38.913Z,11.20
2023-03-21T21:17:23.820Z,11.30
2023-03-21T21:19:50.854Z,11.30
2023-03-21T21:22:17.750Z,11.30
2023-03-21T21:24:44.756Z,11.30
2023-03-21T21:27:11.895Z,11.50
2023-03-21T21:29:38.527Z,11.80
2023-03-21T21:32:05.197Z,11.90
2023-03-21T21:34:31.952Z,12.20
2023-03-21T21:36:58.481Z,12.20
2023-03-21T21:39:26.441Z,11.90
2023-03-21T21:41:53.650Z,11.40
2023-03-21T21:44:20.615Z,11.60
2023-03-21T21:46:47.476Z,11.80
2023-03-21T21:49:14.180Z,11.60
2023-03-21T21:51:41.801Z,11.60
2023-03-21T21:54:08.470Z,11.40
2023-03-21T21:56:36.408Z,11.30
2023-03-21T21:59:04.687Z,11.30
2023-03-21T22:01:34.478Z,11.40
2023-03-21T22:04:06.241Z,11.40
2023-03-21T22:06:33.755Z,11.40
2023-03-21T22:09:00.942Z,11.40
2023-03-21T22:11:27.512Z,11.40
2023-03-21T22:13:54.006Z,11.30
2023-03-21T22:16:20.620Z,11.30
2023-03-21T22:18:47.332Z,11.30
2023-03-21T22:21:13.866Z,11.20
2023-03-21T22:23:43.469Z,11.20
2023-03-21T22:26:10.542Z,11.40
2023-03-21T22:28:40.170Z,11.30
2023-03-21T22:31:09.746Z,11.20
2023-03-21T22:33:36.332Z,11.10
2023-03-21T22:36:03.145Z,11.00
2023-03-21T22:38:30.772Z,11.00
2023-03-21T22:40:58.395Z,11.00
2023-03-21T22:43:25.364Z,10.90
2023-03-21T22:45:52.587Z,10.90
2023-03-21T22:48:19.798Z,10.90
2023-03-21T22:50:46.701Z,10.90
2023-03-21T22:53:13.322Z,11.00
2023-03-21T22:55:39.901Z,11.10
2023-03-21T22:58:06.451Z,11.20
2023-03-21T23:00:33.126Z,11.20
2023-03-21T23:02:59.907Z,11.20
2023-03-21T23:05:26.627Z,11.20
2023-03-21T23:07:53.472Z,11.10
2023-03-21T23:10:20.372Z,11.10
2023-03-21T23:12:47.367Z,11.10
2023-03-21T23:15:14.031Z,11.10
2023-03-21T23:17:41.174Z,11.20
2023-03-21T23:20:08.631Z,11.20
2023-03-21T23:22:35.779Z,11.10
2023-03-21T23:25:02.761Z,11.40
2023-03-21T23:27:29.309Z,11.10
2023-03-21T23:29:56.834Z,11.00
2023-03-21T23:32:23.683Z,11.00
2023-03-21T23:34:54.133Z,11.00
2023-03-21T23:37:25.060Z,11.20
2023-03-21T23:39:55.156Z,11.00
2023-03-21T23:42:23.657Z,10.90
2023-03-21T23:44:50.491Z,10.90
2023-03-21T23:47:17.113Z,10.80
2023-03-21T23:49:45.260Z,10.80
2023-03-21T23:52:11.954Z,11.00
2023-03-21T23:54:38.499Z,11.00
2023-03-21T23:57:05.162Z,11.20
2023-03-21T23:59:31.856Z,11.30
